createdAt,value
2022-12-15T00:02:19.949Z,77537.66
2022-12-15T00:05:06.679Z,77545.75
2022-12-15T00:07:53.028Z,77545.75
2022-12-15T00:10:38.940Z,77549.81
2022-12-15T00:13:33.795Z,77551.84
2022-12-15T00:16:19.587Z,77553.88
2022-12-15T00:19:05.294Z,77549.81
2022-12-15T00:21:51.098Z,77553.88
2022-12-15T00:24:36.570Z,77549.81
2022-12-15T00:27:23.072Z,77549.81
2022-12-15T00:30:08.684Z,77545.75
2022-12-15T00:32:54.430Z,77545.75
2022-12-15T00:35:39.810Z,77543.72
2022-12-15T00:38:26.986Z,77543.72
2022-12-15T00:40:59.029Z,77545.75
2022-12-15T00:43:31.291Z,77541.72
2022-12-15T00:46:18.381Z,77529.53
2022-12-15T00:48:46.514Z,77513.31
2022-12-15T00:51:50.583Z,77517.38
2022-12-15T00:54:36.696Z,77515.34
2022-12-15T00:57:22.207Z,77511.28
2022-12-15T01:00:07.997Z,77517.38
2022-12-15T01:02:53.417Z,77509.25
2022-12-15T01:05:39.190Z,77505.22
2022-12-15T01:08:24.292Z,77493.03
2022-12-15T01:11:09.737Z,77491.03
2022-12-15T01:13:55.250Z,77489.00
2022-12-15T01:16:40.789Z,77491.03
2022-12-15T01:19:27.560Z,77489.00
2022-12-15T01:21:54.785Z,77489.00
2022-12-15T01:24:21.748Z,77493.03
2022-12-15T01:26:48.966Z,77493.03
2022-12-15T01:29:15.955Z,77489.00
2022-12-15T01:31:44.070Z,77484.94
2022-12-15T01:34:11.065Z,77489.00
2022-12-15T01:36:38.241Z,77491.03
2022-12-15T01:39:05.050Z,77484.94
2022-12-15T01:41:32.226Z,77489.00
2022-12-15T01:44:22.630Z,77484.94
2022-12-15T01:46:55.495Z,77476.81
2022-12-15T01:49:26.967Z,77476.81
2022-12-15T01:51:59.613Z,77472.78
2022-12-15T01:54:31.837Z,77472.78
2022-12-15T01:57:09.569Z,77470.75
2022-12-15T01:59:41.136Z,77464.66
2022-12-15T02:02:08.370Z,77460.59
2022-12-15T02:04:37.984Z,77464.66
2022-12-15T02:07:05.480Z,77468.72
2022-12-15T02:09:32.657Z,77462.63
2022-12-15T02:12:29.368Z,77468.72
2022-12-15T02:15:11.340Z,77476.81
2022-12-15T02:18:06.579Z,77472.78
2022-12-15T02:20:38.347Z,77476.81
2022-12-15T02:23:23.919Z,77480.88
2022-12-15T02:26:12.779Z,77478.84
2022-12-15T02:29:03.266Z,77480.88
2022-12-15T02:31:57.940Z,77480.88
2022-12-15T02:34:40.175Z,77486.97
2022-12-15T02:37:35.723Z,77489.00
2022-12-15T02:40:05.614Z,77491.03
2022-12-15T02:42:36.283Z,77489.00
2022-12-15T02:45:09.391Z,77486.97
2022-12-15T02:47:47.152Z,77497.09
2022-12-15T02:50:25.213Z,77489.00
2022-12-15T02:52:58.066Z,77486.97
2022-12-15T02:55:34.186Z,77484.94
2022-12-15T02:58:06.543Z,77493.03
2022-12-15T03:00:42.885Z,77472.78
2022-12-15T03:03:10.991Z,77474.78
2022-12-15T03:05:38.252Z,77476.81
2022-12-15T03:08:05.328Z,77468.72
2022-12-15T03:10:32.449Z,77468.72
2022-12-15T03:12:59.247Z,77468.72
2022-12-15T03:15:29.117Z,77468.72
2022-12-15T03:18:00.346Z,77472.78
2022-12-15T03:20:27.474Z,77468.72
2022-12-15T03:22:54.311Z,77468.72
2022-12-15T03:25:21.473Z,77468.72
2022-12-15T03:27:48.430Z,77470.75
2022-12-15T03:30:15.697Z,77464.66
2022-12-15T03:32:42.572Z,77462.63
2022-12-15T03:35:09.937Z,77468.72
2022-12-15T03:37:36.790Z,77468.72
2022-12-15T03:40:04.334Z,77472.78
2022-12-15T03:42:48.295Z,77472.78
2022-12-15T03:45:21.160Z,77470.75
2022-12-15T03:47:48.850Z,77474.78
2022-12-15T03:50:21.585Z,77476.81
2022-12-15T03:53:00.394Z,77480.88
2022-12-15T03:55:28.952Z,77484.94
2022-12-15T03:57:56.470Z,77489.00
2022-12-15T04:00:27.001Z,77484.94
2022-12-15T04:02:54.348Z,77480.88
2022-12-15T04:05:25.819Z,77489.00
2022-12-15T04:07:53.924Z,77491.03
2022-12-15T04:10:25.290Z,77497.09
2022-12-15T04:13:03.011Z,77489.00
2022-12-15T04:15:30.490Z,77493.03
2022-12-15T04:17:58.340Z,77489.00
2022-12-15T04:20:25.632Z,77484.94
2022-12-15T04:22:52.517Z,77478.84
2022-12-15T04:25:41.311Z,77476.81
2022-12-15T04:28:28.225Z,77470.75
2022-12-15T04:31:19.208Z,77464.66
2022-12-15T04:34:09.337Z,77460.59
2022-12-15T04:36:57.123Z,77460.59
2022-12-15T04:39:43.515Z,77464.66
2022-12-15T04:42:29.377Z,77456.53
2022-12-15T04:45:21.108Z,77464.66
2022-12-15T04:48:07.799Z,77460.59
2022-12-15T04:50:53.297Z,77464.66
2022-12-15T04:53:39.453Z,77464.66
2022-12-15T04:56:30.121Z,77478.84
2022-12-15T04:59:15.850Z,77460.59
2022-12-15T05:02:01.714Z,77460.59
2022-12-15T05:04:47.593Z,77470.75
2022-12-15T05:07:33.443Z,77474.78
2022-12-15T05:10:19.292Z,77476.81
2022-12-15T05:13:04.777Z,77472.78
2022-12-15T05:15:51.660Z,77474.78
2022-12-15T05:18:37.633Z,77472.78
2022-12-15T05:21:23.366Z,77489.00
2022-12-15T05:24:09.179Z,77497.09
2022-12-15T05:26:55.033Z,77505.22
2022-12-15T05:29:40.827Z,77505.22
2022-12-15T05:32:08.605Z,77513.31
2022-12-15T05:34:37.274Z,77517.38
2022-12-15T05:37:05.641Z,77521.44
2022-12-15T05:39:32.686Z,77513.31
2022-12-15T05:42:00.205Z,77505.22
2022-12-15T05:44:28.152Z,77509.25
2022-12-15T05:46:55.329Z,77521.44
2022-12-15T05:49:23.370Z,77537.66
2022-12-15T05:51:50.830Z,77535.63
2022-12-15T05:54:20.028Z,77541.72
2022-12-15T05:56:50.557Z,77553.88
2022-12-15T05:59:19.307Z,77549.81
2022-12-15T06:01:46.903Z,77555.91
2022-12-15T06:04:14.436Z,77561.97
2022-12-15T06:06:42.215Z,77570.09
2022-12-15T06:09:09.517Z,77568.06
2022-12-15T06:11:37.677Z,77578.22
2022-12-15T06:14:04.860Z,77578.22
2022-12-15T06:16:32.579Z,77582.25
2022-12-15T06:19:01.402Z,77598.47
2022-12-15T06:21:37.522Z,77590.38
2022-12-15T06:24:05.707Z,77598.47
2022-12-15T06:26:37.827Z,77610.66
2022-12-15T06:29:08.697Z,77606.59
2022-12-15T06:31:37.260Z,77608.63
2022-12-15T06:34:08.777Z,77610.66
2022-12-15T06:36:36.652Z,77618.75
2022-12-15T06:39:05.758Z,77616.72
2022-12-15T06:41:33.502Z,77610.66
2022-12-15T06:44:01.060Z,77626.88
2022-12-15T06:46:30.115Z,77630.94
2022-12-15T06:48:58.310Z,77626.88
2022-12-15T06:51:28.897Z,77632.94
2022-12-15T06:53:56.429Z,77639.03
2022-12-15T06:56:32.520Z,77639.03
2022-12-15T06:59:01.933Z,77639.03
2022-12-15T07:01:30.314Z,77643.09
2022-12-15T07:04:00.436Z,77643.09
2022-12-15T07:06:34.160Z,77647.16
2022-12-15T07:09:01.045Z,77659.31
2022-12-15T07:11:28.328Z,77659.31
2022-12-15T07:13:55.213Z,77663.38
2022-12-15T07:16:23.205Z,77667.44
2022-12-15T07:18:50.553Z,77663.38
2022-12-15T07:21:18.113Z,77667.44
2022-12-15T07:23:54.888Z,77663.38
2022-12-15T07:26:24.278Z,77675.53
2022-12-15T07:28:53.182Z,77687.69
2022-12-15T07:31:20.480Z,77691.75
2022-12-15T07:33:48.481Z,77687.69
2022-12-15T07:36:16.594Z,77691.75
2022-12-15T07:38:49.880Z,77685.69
2022-12-15T07:41:19.894Z,77693.78
2022-12-15T07:43:47.883Z,77695.81
2022-12-15T07:46:16.139Z,77693.78
2022-12-15T07:48:43.263Z,77705.94
2022-12-15T07:51:18.812Z,77703.94
2022-12-15T07:53:47.370Z,77712.03
2022-12-15T07:56:15.469Z,77705.94
2022-12-15T07:58:43.868Z,77699.88
2022-12-15T08:01:13.299Z,77701.91
2022-12-15T08:03:41.331Z,77703.94
2022-12-15T08:06:11.745Z,77712.03
2022-12-15T08:08:39.721Z,77712.03
2022-12-15T08:11:08.606Z,77707.97
2022-12-15T08:16:23.678Z,77703.94
2022-12-15T08:18:50.681Z,77703.94
2022-12-15T08:21:18.013Z,77699.88
2022-12-15T08:23:45.376Z,77699.88
2022-12-15T08:26:15.257Z,77707.97
2022-12-15T08:28:43.463Z,77699.88
2022-12-15T08:31:16.911Z,77691.75
2022-12-15T08:33:45.184Z,77699.88
2022-12-15T08:36:14.963Z,77691.75
2022-12-15T08:38:43.406Z,77712.03
2022-12-15T08:41:13.754Z,77718.13
2022-12-15T08:43:48.179Z,77716.09
2022-12-15T08:46:18.293Z,77716.09
2022-12-15T08:48:45.997Z,77728.25
2022-12-15T08:51:14.050Z,77724.19
2022-12-15T08:53:40.893Z,77724.19
2022-12-15T08:56:17.279Z,77724.19
2022-12-15T08:58:45.909Z,77716.09
2022-12-15T09:01:22.408Z,77712.03
2022-12-15T09:03:52.243Z,77720.16
2022-12-15T09:06:22.560Z,77716.09
2022-12-15T09:08:50.523Z,77718.13
2022-12-15T09:11:18.327Z,77724.19
2022-12-15T09:13:45.249Z,77732.31
2022-12-15T09:16:17.071Z,77732.31
2022-12-15T09:18:47.210Z,77736.38
2022-12-15T09:21:15.439Z,77744.47
2022-12-15T09:23:43.184Z,77740.44
2022-12-15T09:26:12.703Z,77744.47
2022-12-15T09:28:39.929Z,77736.38
2022-12-15T09:31:16.009Z,77736.38
2022-12-15T09:33:44.438Z,77730.28
2022-12-15T09:36:15.595Z,77724.19
2022-12-15T09:38:43.293Z,77726.22
2022-12-15T09:41:13.420Z,77732.31
2022-12-15T09:44:32.930Z,77746.50
2022-12-15T09:47:24.419Z,77736.38
2022-12-15T09:49:58.242Z,77728.25
2022-12-15T09:52:33.234Z,77744.47
2022-12-15T09:55:01.928Z,77728.25
2022-12-15T09:57:51.347Z,77748.53
2022-12-15T10:00:23.602Z,77760.69
2022-12-15T10:03:19.864Z,77766.78
2022-12-15T10:06:16.252Z,77768.81
2022-12-15T10:08:53.013Z,77789.09
2022-12-15T10:11:55.662Z,77772.88
2022-12-15T10:14:23.047Z,77764.75
2022-12-15T10:17:19.944Z,77768.81
2022-12-15T10:20:04.451Z,77760.69
2022-12-15T10:22:34.157Z,77762.72
2022-12-15T10:25:29.367Z,77764.75
2022-12-15T10:28:15.995Z,77768.81
2022-12-15T10:30:51.371Z,77760.69
2022-12-15T10:33:21.738Z,77768.81
2022-12-15T10:35:50.991Z,77760.69
2022-12-15T10:38:38.623Z,77756.66
2022-12-15T10:41:09.430Z,77760.69
2022-12-15T10:43:41.998Z,77787.06
2022-12-15T10:46:09.234Z,77793.16
2022-12-15T10:48:37.146Z,77805.31
2022-12-15T10:51:22.289Z,77797.19
2022-12-15T10:53:53.297Z,77799.22
2022-12-15T10:56:32.783Z,77805.31
2022-12-15T10:59:31.851Z,77807.34
2022-12-15T11:02:23.882Z,77813.44
2022-12-15T11:05:18.107Z,77825.59
2022-12-15T11:07:46.681Z,77835.72
2022-12-15T11:10:26.751Z,77833.69
2022-12-15T11:13:14.512Z,77839.78
2022-12-15T11:15:47.487Z,77835.72
2022-12-15T11:18:45.089Z,77845.88
2022-12-15T11:21:39.635Z,77851.97
2022-12-15T11:24:17.982Z,77845.88
2022-12-15T11:26:53.620Z,77849.94
2022-12-15T11:29:55.432Z,77845.88
2022-12-15T11:32:47.354Z,77870.22
2022-12-15T11:35:21.484Z,77890.47
2022-12-15T11:37:55.955Z,77906.72
2022-12-15T11:40:40.443Z,77908.72
2022-12-15T11:43:55.501Z,77902.66
2022-12-15T11:46:39.843Z,77910.75
2022-12-15T11:49:41.389Z,77906.72
2022-12-15T11:52:17.328Z,77906.72
2022-12-15T11:54:55.435Z,77918.88
2022-12-15T11:57:55.761Z,77926.97
2022-12-15T12:00:23.660Z,77943.22
2022-12-15T12:03:13.281Z,77943.22
2022-12-15T12:05:55.415Z,77939.16
2022-12-15T12:08:47.276Z,77951.31
2022-12-15T12:11:45.960Z,77955.38
2022-12-15T12:14:39.039Z,77955.38
2022-12-15T12:17:36.943Z,77951.31
2022-12-15T12:20:15.418Z,77971.59
2022-12-15T12:23:05.590Z,77967.53
2022-12-15T12:25:45.752Z,77963.50
2022-12-15T12:28:22.968Z,77975.66
2022-12-15T12:30:50.753Z,77967.53
2022-12-15T12:33:34.347Z,77967.53
2022-12-15T12:36:11.809Z,77965.50
2022-12-15T12:38:50.746Z,77967.53
2022-12-15T12:41:26.262Z,77961.47
2022-12-15T12:43:58.854Z,77975.66
2022-12-15T12:46:44.014Z,77973.63
2022-12-15T12:49:12.143Z,77975.66
2022-12-15T12:51:41.422Z,77975.66
2022-12-15T12:54:36.863Z,77979.72
2022-12-15T12:57:13.444Z,77983.75
2022-12-15T12:59:57.624Z,77985.78
2022-12-15T13:02:26.270Z,77991.88
2022-12-15T13:05:43.160Z,77991.88
2022-12-15T13:08:10.229Z,77991.88
2022-12-15T13:10:39.823Z,77989.84
2022-12-15T13:13:29.720Z,77995.94
2022-12-15T13:16:25.922Z,77991.88
2022-12-15T13:19:05.204Z,77995.94
2022-12-15T13:21:43.029Z,77991.88
2022-12-15T13:24:35.645Z,77987.81
2022-12-15T13:27:14.222Z,77991.88
2022-12-15T13:29:59.430Z,78000.00
2022-12-15T13:32:28.743Z,78004.03
2022-12-15T13:34:57.222Z,78012.16
2022-12-15T13:37:43.945Z,78028.38
2022-12-15T13:40:35.291Z,78040.56
2022-12-15T13:43:05.475Z,78044.59
2022-12-15T13:45:59.036Z,78040.56
2022-12-15T13:48:30.162Z,78050.69
2022-12-15T13:51:02.548Z,78048.66
2022-12-15T13:53:38.723Z,78064.88
2022-12-15T13:56:23.419Z,78075.03
2022-12-15T13:58:59.832Z,78095.31
2022-12-15T14:01:32.683Z,78101.38
2022-12-15T14:04:20.775Z,78101.38
2022-12-15T14:06:57.664Z,78097.34
2022-12-15T14:09:33.312Z,78109.50
2022-12-15T14:12:04.571Z,78089.22
2022-12-15T14:14:37.182Z,78103.41
2022-12-15T14:17:09.057Z,78121.66
2022-12-15T14:19:44.616Z,78121.66
2022-12-15T14:22:28.702Z,78127.75
2022-12-15T14:25:14.510Z,78141.94
2022-12-15T14:27:42.036Z,78137.91
2022-12-15T14:30:16.506Z,78137.91
2022-12-15T14:32:47.302Z,78170.34
2022-12-15T14:35:24.891Z,78160.19
2022-12-15T14:37:55.830Z,78166.28
2022-12-15T14:40:28.399Z,78190.63
2022-12-15T14:42:56.804Z,78172.38
2022-12-15T14:45:27.390Z,78166.28
2022-12-15T14:51:00.362Z,78170.34
2022-12-15T14:53:33.805Z,78178.44
2022-12-15T14:56:33.068Z,78186.56
2022-12-15T14:59:17.441Z,78190.63
2022-12-15T15:02:01.964Z,78190.63
2022-12-15T15:04:34.142Z,78202.78
2022-12-15T15:07:04.416Z,78202.78
2022-12-15T15:09:38.204Z,78198.72
2022-12-15T15:12:08.408Z,78206.84
2022-12-15T15:15:08.401Z,78214.97
2022-12-15T15:17:39.323Z,78214.97
2022-12-15T15:20:24.491Z,78219.00
2022-12-15T15:23:17.886Z,78219.00
2022-12-15T15:25:56.707Z,78243.34
2022-12-15T15:28:28.248Z,78249.44
2022-12-15T15:31:05.522Z,78251.47
2022-12-15T15:33:33.354Z,78247.41
2022-12-15T15:36:02.004Z,78247.41
2022-12-15T15:38:38.525Z,78255.53
2022-12-15T15:41:16.744Z,78267.69
2022-12-15T15:43:44.004Z,78267.69
2022-12-15T15:46:15.795Z,78259.56
2022-12-15T15:48:47.282Z,78251.47
2022-12-15T15:51:14.711Z,78267.69
2022-12-15T15:53:41.750Z,78271.75
2022-12-15T15:56:12.138Z,78271.75
2022-12-15T15:58:39.248Z,78259.56
2022-12-15T16:01:12.667Z,78259.56
2022-12-15T16:03:40.412Z,78255.53
2022-12-15T16:06:17.216Z,78249.44
2022-12-15T16:08:46.499Z,78251.47
2022-12-15T16:11:13.708Z,78263.63
2022-12-15T16:13:40.652Z,78269.72
2022-12-15T16:16:17.993Z,78271.75
2022-12-15T16:18:45.184Z,78283.91
2022-12-15T16:21:14.549Z,78257.53
2022-12-15T16:23:44.898Z,78257.53
2022-12-15T16:26:15.413Z,78259.56
2022-12-15T16:28:42.370Z,78255.53
2022-12-15T16:31:15.722Z,78263.63
2022-12-15T16:33:42.782Z,78267.69
2022-12-15T16:36:18.985Z,78261.59
2022-12-15T16:38:45.836Z,78257.53
2022-12-15T16:41:16.700Z,78251.47
2022-12-15T16:43:48.157Z,78247.41
2022-12-15T16:46:16.012Z,78247.41
2022-12-15T16:48:43.416Z,78245.38
2022-12-15T16:51:33.982Z,78251.47
2022-12-15T16:54:00.894Z,78245.38
2022-12-15T16:56:28.078Z,78251.47
2022-12-15T16:59:15.483Z,78247.41
2022-12-15T17:01:44.696Z,78235.25
2022-12-15T17:04:12.160Z,78239.28
2022-12-15T17:06:39.849Z,78235.25
2022-12-15T17:09:08.873Z,78235.25
2022-12-15T17:11:36.136Z,78231.19
2022-12-15T17:14:03.000Z,78231.19
2022-12-15T17:16:30.284Z,78227.13
2022-12-15T17:18:57.289Z,78231.19
2022-12-15T17:21:34.025Z,78235.25
2022-12-15T17:24:06.440Z,78227.13
2022-12-15T17:26:36.408Z,78233.22
2022-12-15T17:29:13.338Z,78219.00
2022-12-15T17:31:40.683Z,78219.00
2022-12-15T17:34:25.504Z,78223.06
2022-12-15T17:36:53.034Z,78223.06
2022-12-15T17:39:21.877Z,78219.00
2022-12-15T17:41:59.819Z,78210.91
2022-12-15T17:44:33.627Z,78198.72
2022-12-15T17:47:04.571Z,78208.88
2022-12-15T17:49:36.037Z,78210.91
2022-12-15T17:52:07.998Z,78214.97
2022-12-15T17:54:35.625Z,78214.97
2022-12-15T17:57:02.702Z,78210.91
2022-12-15T17:59:31.818Z,78206.84
2022-12-15T18:01:59.346Z,78198.72
2022-12-15T18:04:26.454Z,78196.72
2022-12-15T18:06:59.683Z,78198.72
2022-12-15T18:09:28.939Z,78194.69
2022-12-15T18:11:56.230Z,78194.69
2022-12-15T18:14:23.451Z,78198.72
2022-12-15T18:16:50.926Z,78198.72
2022-12-15T18:19:18.042Z,78210.91
2022-12-15T18:21:45.275Z,78212.94
2022-12-15T18:24:17.462Z,78210.91
2022-12-15T18:26:44.862Z,78219.00
2022-12-15T18:29:14.153Z,78206.84
2022-12-15T18:31:42.334Z,78198.72
2022-12-15T18:34:15.023Z,78206.84
2022-12-15T18:36:43.024Z,78214.97
2022-12-15T18:39:23.806Z,78221.03
2022-12-15T18:41:52.512Z,78219.00
2022-12-15T18:44:25.905Z,78219.00
2022-12-15T18:46:55.328Z,78210.91
2022-12-15T18:49:23.707Z,78206.84
2022-12-15T18:51:51.768Z,78202.78
2022-12-15T18:54:24.101Z,78204.81
2022-12-15T18:56:51.668Z,78198.72
2022-12-15T18:59:19.567Z,78202.78
2022-12-15T19:01:48.489Z,78206.84
2022-12-15T19:04:15.595Z,78216.97
2022-12-15T19:06:44.440Z,78223.06
2022-12-15T19:09:19.160Z,78214.97
2022-12-15T19:12:06.714Z,78231.19
2022-12-15T19:14:43.362Z,78239.28
2022-12-15T19:17:31.471Z,78237.28
2022-12-15T19:20:16.903Z,78243.34
2022-12-15T19:22:45.543Z,78243.34
2022-12-15T19:25:25.815Z,78243.34
2022-12-15T19:27:59.691Z,78243.34
2022-12-15T19:30:29.428Z,78239.28
2022-12-15T19:32:56.934Z,78247.41
2022-12-15T19:35:24.911Z,78249.44
2022-12-15T19:37:55.129Z,78241.31
2022-12-15T19:40:27.561Z,78247.41
2022-12-15T19:42:55.428Z,78247.41
2022-12-15T19:45:26.470Z,78241.31
2022-12-15T19:47:54.158Z,78231.19
2022-12-15T19:50:23.972Z,78229.16
2022-12-15T19:52:55.366Z,78231.19
2022-12-15T19:55:27.036Z,78235.25
2022-12-15T19:57:54.181Z,78225.09
2022-12-15T20:00:22.400Z,78219.00
2022-12-15T20:02:51.663Z,78210.91
2022-12-15T20:05:20.149Z,78219.00
2022-12-15T20:07:48.485Z,78223.06
2022-12-15T20:10:24.474Z,78214.97
2022-12-15T20:12:55.013Z,78210.91
2022-12-15T20:15:25.138Z,78202.78
2022-12-15T20:17:57.012Z,78219.00
2022-12-15T20:20:27.696Z,78219.00
2022-12-15T20:22:59.016Z,78219.00
2022-12-15T20:25:33.585Z,78231.19
2022-12-15T20:28:01.577Z,78233.22
2022-12-15T20:30:35.467Z,78235.25
2022-12-15T20:33:04.376Z,78239.28
2022-12-15T20:35:34.700Z,78235.25
2022-12-15T20:38:13.418Z,78243.34
2022-12-15T20:40:40.337Z,78247.41
2022-12-15T20:43:18.717Z,78251.47
2022-12-15T20:45:47.134Z,78259.56
2022-12-15T20:48:15.389Z,78269.72
2022-12-15T20:50:48.469Z,78269.72
2022-12-15T20:53:23.924Z,78285.94
2022-12-15T20:55:52.604Z,78294.06
2022-12-15T20:58:20.587Z,78302.16
2022-12-15T21:00:49.031Z,78304.19
2022-12-15T21:03:23.886Z,78316.34
2022-12-15T21:05:53.135Z,78316.34
2022-12-15T21:08:31.595Z,78312.31
2022-12-15T21:11:15.381Z,78306.22
2022-12-15T21:13:42.985Z,78308.25
2022-12-15T21:16:28.949Z,78316.34
2022-12-15T21:19:20.374Z,78312.31
2022-12-15T21:21:45.797Z,78300.13
2022-12-15T21:24:15.571Z,78298.09
2022-12-15T21:26:43.085Z,78287.97
2022-12-15T21:29:19.397Z,78283.91
2022-12-15T21:31:46.654Z,78287.97
2022-12-15T21:34:14.151Z,78287.97
2022-12-15T21:36:44.263Z,78287.97
2022-12-15T21:39:34.771Z,78283.91
2022-12-15T21:42:11.754Z,78279.84
2022-12-15T21:44:38.837Z,78292.03
2022-12-15T21:47:47.612Z,78292.03
2022-12-15T21:50:18.915Z,78300.13
2022-12-15T21:52:47.478Z,78308.25
2022-12-15T21:55:21.341Z,78312.31
2022-12-15T21:57:48.283Z,78308.25
2022-12-15T22:00:17.555Z,78304.19
2022-12-15T22:02:46.074Z,78304.19
2022-12-15T22:05:16.572Z,78300.13
2022-12-15T22:07:43.691Z,78292.03
2022-12-15T22:10:11.365Z,78287.97
2022-12-15T22:12:40.181Z,78287.97
2022-12-15T22:15:23.439Z,78290.00
2022-12-15T22:17:50.777Z,78296.09
2022-12-15T22:20:21.530Z,78298.09
2022-12-15T22:22:48.561Z,78304.19
2022-12-15T22:25:20.791Z,78300.13
2022-12-15T22:27:48.498Z,78320.41
2022-12-15T22:30:23.756Z,78328.53
2022-12-15T22:32:50.736Z,78326.50
2022-12-15T22:35:23.877Z,78340.69
2022-12-15T22:37:53.944Z,78336.66
2022-12-15T22:40:23.396Z,78340.69
2022-12-15T22:42:57.241Z,78340.69
2022-12-15T22:45:25.020Z,78352.88
2022-12-15T22:47:53.301Z,78356.94
2022-12-15T22:50:24.886Z,78352.88
2022-12-15T22:52:52.213Z,78348.81
2022-12-15T22:55:20.876Z,78360.97
2022-12-15T22:57:59.479Z,78338.66
2022-12-15T23:00:29.516Z,78352.88
2022-12-15T23:05:30.644Z,78340.69
2022-12-15T23:07:58.982Z,78344.75
2022-12-15T23:10:44.525Z,78334.63
2022-12-15T23:17:25.542Z,78344.75
2022-12-15T23:19:52.372Z,78356.94
2022-12-15T23:22:19.479Z,78360.97
2022-12-15T23:24:46.366Z,78363.00
2022-12-15T23:27:13.470Z,78377.22
2022-12-15T23:29:40.475Z,78385.31
2022-12-15T23:32:07.633Z,78381.25
2022-12-15T23:34:35.028Z,78381.25
2022-12-15T23:37:02.702Z,78377.22
2022-12-15T23:39:29.644Z,78389.38
2022-12-15T23:41:56.735Z,78395.47
2022-12-15T23:44:23.537Z,78397.50
2022-12-15T23:46:50.717Z,78393.44
2022-12-15T23:49:17.551Z,78393.44
2022-12-15T23:51:44.691Z,78397.50
2022-12-15T23:54:11.526Z,78389.38
2022-12-15T23:56:39.452Z,78393.44
2022-12-15T23:59:06.793Z,78389.38
